sensor_id;sensor_type;location;lat;lon;timestamp;pressure;altitude;pressure_sealevel;temperature;humidity
69221;BME280;56331;51.992;20.910;2022-07-29T00:02:20;100713.72;;;25.67;42.93
69221;BME280;56331;51.992;20.910;2022-07-29T00:04:47;100712.92;;;25.67;42.89
69221;BME280;56331;51.992;20.910;2022-07-29T00:07:13;100715.49;;;25.66;42.76
69221;BME280;56331;51.992;20.910;2022-07-29T00:09:40;100714.91;;;25.66;42.83
69221;BME280;56331;51.992;20.910;2022-07-29T00:12:06;100716.05;;;25.65;42.69
69221;BME280;56331;51.992;20.910;2022-07-29T00:14:33;100715.63;;;25.63;42.50
69221;BME280;56331;51.992;20.910;2022-07-29T00:17:00;100724.00;;;25.63;42.61
69221;BME280;56331;51.992;20.910;2022-07-29T00:19:26;100717.83;;;25.64;42.59
69221;BME280;56331;51.992;20.910;2022-07-29T00:21:53;100719.22;;;25.64;42.56
69221;BME280;56331;51.992;20.910;2022-07-29T00:24:19;100721.55;;;25.62;42.52
69221;BME280;56331;51.992;20.910;2022-07-29T00:26:46;100730.38;;;25.64;42.41
69221;BME280;56331;51.992;20.910;2022-07-29T00:29:13;100731.56;;;25.63;42.38
69221;BME280;56331;51.992;20.910;2022-07-29T00:31:40;100732.95;;;25.63;42.31
69221;BME280;56331;51.992;20.910;2022-07-29T00:34:07;100732.95;;;25.63;42.35
69221;BME280;56331;51.992;20.910;2022-07-29T00:36:35;100733.52;;;25.62;42.32
69221;BME280;56331;51.992;20.910;2022-07-29T00:39:02;100729.58;;;25.63;42.29
69221;BME280;56331;51.992;20.910;2022-07-29T00:41:28;100725.39;;;25.63;42.19
69221;BME280;56331;51.992;20.910;2022-07-29T00:43:55;100723.75;;;25.62;42.19
69221;BME280;56331;51.992;20.910;2022-07-29T00:46:21;100724.00;;;25.63;42.04
69221;BME280;56331;51.992;20.910;2022-07-29T00:48:48;100721.55;;;25.62;42.10
69221;BME280;56331;51.992;20.910;2022-07-29T00:51:15;100720.16;;;25.62;41.98
69221;BME280;56331;51.992;20.910;2022-07-29T00:53:41;100718.77;;;25.62;42.01
69221;BME280;56331;51.992;20.910;2022-07-29T00:56:09;100712.16;;;25.60;41.97
69221;BME280;56331;51.992;20.910;2022-07-29T00:58:36;100717.37;;;25.62;41.98
69221;BME280;56331;51.992;20.910;2022-07-29T01:04:43;100718.17;;;25.62;41.74
69221;BME280;56331;51.992;20.910;2022-07-29T01:07:10;100714.95;;;25.60;41.70
69221;BME280;56331;51.992;20.910;2022-07-29T01:09:37;100712.85;;;25.57;41.66
69221;BME280;56331;51.992;20.910;2022-07-29T01:12:05;100721.01;;;25.56;41.62
69221;BME280;56331;51.992;20.910;2022-07-29T01:14:32;100724.26;;;25.58;41.73
69221;BME280;56331;51.992;20.910;2022-07-29T01:17:02;100722.86;;;25.58;41.60
69221;BME280;56331;51.992;20.910;2022-07-29T01:19:50;100715.64;;;25.57;41.52
69221;BME280;56331;51.992;20.910;2022-07-29T01:22:25;100718.81;;;25.56;41.50
69221;BME280;56331;51.992;20.910;2022-07-29T01:30:27;100717.89;;;25.51;41.50
69221;BME280;56331;51.992;20.910;2022-07-29T01:32:59;100714.88;;;25.50;41.45
69221;BME280;56331;51.992;20.910;2022-07-29T01:35:27;100724.64;;;25.50;41.43
69221;BME280;56331;51.992;20.910;2022-07-29T01:48:21;100730.69;;;25.52;41.24
69221;BME280;56331;51.992;20.910;2022-07-29T01:50:58;100728.70;;;25.53;41.18
69221;BME280;56331;51.992;20.910;2022-07-29T01:53:29;100731.24;;;25.52;41.15
69221;BME280;56331;51.992;20.910;2022-07-29T01:55:55;100731.03;;;25.51;41.07
69221;BME280;56331;51.992;20.910;2022-07-29T01:58:24;100736.61;;;25.51;41.04
69221;BME280;56331;51.992;20.910;2022-07-29T02:00:53;100731.38;;;25.49;41.03
69221;BME280;56331;51.992;20.910;2022-07-29T02:03:22;100726.17;;;25.48;40.98
69221;BME280;56331;51.992;20.910;2022-07-29T02:05:50;100731.96;;;25.49;41.02
69221;BME280;56331;51.992;20.910;2022-07-29T02:08:19;100725.80;;;25.49;41.03
69221;BME280;56331;51.992;20.910;2022-07-29T02:10:47;100724.86;;;25.51;40.96
69221;BME280;56331;51.992;20.910;2022-07-29T02:13:15;100717.30;;;25.52;40.94
69221;BME280;56331;51.992;20.910;2022-07-29T02:15:44;100719.53;;;25.52;40.86
69221;BME280;56331;51.992;20.910;2022-07-29T02:18:17;100720.09;;;25.52;40.77
69221;BME280;56331;51.992;20.910;2022-07-29T02:20:47;100719.53;;;25.52;40.79
69221;BME280;56331;51.992;20.910;2022-07-29T02:23:18;100719.28;;;25.51;40.78
69221;BME280;56331;51.992;20.910;2022-07-29T02:25:44;100720.46;;;25.50;40.71
69221;BME280;56331;51.992;20.910;2022-07-29T02:28:13;100726.26;;;25.51;40.64
69221;BME280;56331;51.992;20.910;2022-07-29T02:30:42;100722.66;;;25.51;40.65
69221;BME280;56331;51.992;20.910;2022-07-29T02:33:12;100727.30;;;25.53;40.57
69221;BME280;56331;51.992;20.910;2022-07-29T02:35:40;100730.44;;;25.51;40.56
69221;BME280;56331;51.992;20.910;2022-07-29T02:38:09;100727.66;;;25.51;40.64
69221;BME280;56331;51.992;20.910;2022-07-29T02:40:56;100727.06;;;25.52;40.59
69221;BME280;56331;51.992;20.910;2022-07-29T02:43:24;100730.44;;;25.51;40.50
69221;BME280;56331;51.992;20.910;2022-07-29T02:45:52;100734.75;;;25.49;40.53
69221;BME280;56331;51.992;20.910;2022-07-29T02:48:25;100733.14;;;25.48;40.48
69221;BME280;56331;51.992;20.910;2022-07-29T02:50:54;100735.94;;;25.48;40.49
69221;BME280;56331;51.992;20.910;2022-07-29T02:53:22;100736.73;;;25.48;40.47
69221;BME280;56331;51.992;20.910;2022-07-29T02:55:59;100739.74;;;25.49;40.50
69221;BME280;56331;51.992;20.910;2022-07-29T02:58:34;100731.38;;;25.49;40.48
69221;BME280;56331;51.992;20.910;2022-07-29T03:01:04;100738.13;;;25.48;40.41
69221;BME280;56331;51.992;20.910;2022-07-29T03:03:34;100734.54;;;25.48;40.39
69221;BME280;56331;51.992;20.910;2022-07-29T03:06:02;100732.34;;;25.47;40.41
69221;BME280;56331;51.992;20.910;2022-07-29T03:08:30;100735.47;;;25.46;40.32
69221;BME280;56331;51.992;20.910;2022-07-29T03:10:58;100733.48;;;25.46;40.33
69221;BME280;56331;51.992;20.910;2022-07-29T03:13:26;100729.43;;;25.44;40.26
69221;BME280;56331;51.992;20.910;2022-07-29T03:15:53;100732.01;;;25.43;40.32
69221;BME280;56331;51.992;20.910;2022-07-29T03:18:21;100730.02;;;25.43;40.32
69221;BME280;56331;51.992;20.910;2022-07-29T03:20:48;100730.61;;;25.43;40.29
69221;BME280;56331;51.992;20.910;2022-07-29T03:23:19;100730.83;;;25.44;40.26
69221;BME280;56331;51.992;20.910;2022-07-29T03:25:46;100733.61;;;25.44;40.20
69221;BME280;56331;51.992;20.910;2022-07-29T03:28:13;100734.42;;;25.44;40.21
69221;BME280;56331;51.992;20.910;2022-07-29T03:30:39;100734.08;;;25.46;40.20
69221;BME280;56331;51.992;20.910;2022-07-29T03:33:05;100733.86;;;25.45;40.17
69221;BME280;56331;51.992;20.910;2022-07-29T03:35:31;100739.88;;;25.47;40.11
69221;BME280;56331;51.992;20.910;2022-07-29T03:37:58;100742.45;;;25.46;40.11
69221;BME280;56331;51.992;20.910;2022-07-29T03:43:02;100743.25;;;25.46;40.11
69221;BME280;56331;51.992;20.910;2022-07-29T03:45:30;100740.59;;;25.44;40.09
69221;BME280;56331;51.992;20.910;2022-07-29T03:48:05;100751.75;;;25.44;40.01
69221;BME280;56331;51.992;20.910;2022-07-29T03:50:30;100748.95;;;25.44;40.02
69221;BME280;56331;51.992;20.910;2022-07-29T03:52:57;100749.67;;;25.41;40.06
69221;BME280;56331;51.992;20.910;2022-07-29T03:55:24;100738.73;;;25.42;40.10
69221;BME280;56331;51.992;20.910;2022-07-29T03:57:51;100737.59;;;25.43;40.08
69221;BME280;56331;51.992;20.910;2022-07-29T04:02:53;100742.11;;;25.41;40.12
69221;BME280;56331;51.992;20.910;2022-07-29T04:05:19;100738.39;;;25.43;40.18
69221;BME280;56331;51.992;20.910;2022-07-29T04:07:47;100745.11;;;25.48;40.25
69221;BME280;56331;51.992;20.910;2022-07-29T04:10:14;100738.34;;;25.49;40.30
69221;BME280;56331;51.992;20.910;2022-07-29T04:12:44;100746.16;;;25.50;40.41
69221;BME280;56331;51.992;20.910;2022-07-29T04:15:11;100743.92;;;25.49;40.53
69221;BME280;56331;51.992;20.910;2022-07-29T04:17:37;100743.37;;;25.50;40.55
69221;BME280;56331;51.992;20.910;2022-07-29T04:22:51;100749.50;;;25.49;40.73
69221;BME280;56331;51.992;20.910;2022-07-29T04:25:18;100747.30;;;25.49;40.89
69221;BME280;56331;51.992;20.910;2022-07-29T04:27:45;100749.50;;;25.49;40.94
69221;BME280;56331;51.992;20.910;2022-07-29T04:30:27;100742.31;;;25.48;41.05
69221;BME280;56331;51.992;20.910;2022-07-29T04:32:54;100749.29;;;25.48;41.18
69221;BME280;56331;51.992;20.910;2022-07-29T04:35:21;100751.86;;;25.47;41.27
69221;BME280;56331;51.992;20.910;2022-07-29T04:37:47;100747.44;;;25.46;41.39
69221;BME280;56331;51.992;20.910;2022-07-29T04:40:14;100749.63;;;25.47;41.49
69221;BME280;56331;51.992;20.910;2022-07-29T04:42:40;100745.23;;;25.46;41.52
69221;BME280;56331;51.992;20.910;2022-07-29T04:45:07;100748.23;;;25.47;41.56
69221;BME280;56331;51.992;20.910;2022-07-29T04:47:34;100756.05;;;25.47;41.60
69221;BME280;56331;51.992;20.910;2022-07-29T04:50:00;100753.81;;;25.47;41.69
69221;BME280;56331;51.992;20.910;2022-07-29T04:52:27;100756.85;;;25.48;41.75
69221;BME280;56331;51.992;20.910;2022-07-29T04:54:53;100756.05;;;25.47;41.77
69221;BME280;56331;51.992;20.910;2022-07-29T04:57:19;100762.19;;;25.47;41.83
69221;BME280;56331;51.992;20.910;2022-07-29T04:59:45;100759.18;;;25.46;41.85
69221;BME280;56331;51.992;20.910;2022-07-29T05:02:12;100764.97;;;25.47;41.91
69221;BME280;56331;51.992;20.910;2022-07-29T05:04:38;100768.60;;;25.47;41.91
69221;BME280;56331;51.992;20.910;2022-07-29T05:07:04;100768.36;;;25.46;41.97
69221;BME280;56331;51.992;20.910;2022-07-29T05:09:31;100766.37;;;25.47;42.02
69221;BME280;56331;51.992;20.910;2022-07-29T05:11:58;100771.14;;;25.46;42.05
69221;BME280;56331;51.992;20.910;2022-07-29T05:14:24;100774.98;;;25.48;42.05
69221;BME280;56331;51.992;20.910;2022-07-29T05:16:51;100770.20;;;25.48;42.09
69221;BME280;56331;51.992;20.910;2022-07-29T05:19:18;100769.41;;;25.48;42.15
69221;BME280;56331;51.992;20.910;2022-07-29T05:21:45;100774.18;;;25.47;42.20
69221;BME280;56331;51.992;20.910;2022-07-29T05:24:11;100784.50;;;25.47;42.31
69221;BME280;56331;51.992;20.910;2022-07-29T05:26:38;100781.16;;;25.47;42.29
69221;BME280;56331;51.992;20.910;2022-07-29T05:29:05;100771.95;;;25.47;42.37
69221;BME280;56331;51.992;20.910;2022-07-29T05:31:32;100772.53;;;25.46;42.46
69221;BME280;56331;51.992;20.910;2022-07-29T05:33:59;100766.96;;;25.46;42.54
69221;BME280;56331;51.992;20.910;2022-07-29T05:36:26;100759.98;;;25.46;42.62
69221;BME280;56331;51.992;20.910;2022-07-29T05:38:53;100758.00;;;25.47;42.67
69221;BME280;56331;51.992;20.910;2022-07-29T05:41:19;100750.22;;;25.46;42.73
69221;BME280;56331;51.992;20.910;2022-07-29T05:43:45;100750.22;;;25.46;42.76
69221;BME280;56331;51.992;20.910;2022-07-29T05:46:13;100756.61;;;25.47;42.82
69221;BME280;56331;51.992;20.910;2022-07-29T05:48:40;100754.66;;;25.47;42.84
69221;BME280;56331;51.992;20.910;2022-07-29T05:51:07;100753.81;;;25.47;42.87
69221;BME280;56331;51.992;20.910;2022-07-29T05:53:34;100753.02;;;25.46;42.98
69221;BME280;56331;51.992;20.910;2022-07-29T05:56:02;100744.18;;;25.44;43.02
69221;BME280;56331;51.992;20.910;2022-07-29T05:58:29;100756.17;;;25.45;43.14
69221;BME280;56331;51.992;20.910;2022-07-29T06:00:55;100750.94;;;25.43;43.20
69221;BME280;56331;51.992;20.910;2022-07-29T06:03:27;100747.94;;;25.42;43.34
69221;BME280;56331;51.992;20.910;2022-07-29T06:05:54;100746.54;;;25.42;43.48
69221;BME280;56331;51.992;20.910;2022-07-29T06:08:21;100749.55;;;25.43;43.63
69221;BME280;56331;51.992;20.910;2022-07-29T06:10:47;100752.13;;;25.42;43.74
69221;BME280;56331;51.992;20.910;2022-07-29T06:13:14;100747.69;;;25.41;44.00
69221;BME280;56331;51.992;20.910;2022-07-29T06:15:43;100754.32;;;25.43;44.03
69221;BME280;56331;51.992;20.910;2022-07-29T06:18:12;100754.66;;;25.41;44.24
69221;BME280;56331;51.992;20.910;2022-07-29T06:20:39;100749.89;;;25.42;44.22
69221;BME280;56331;51.992;20.910;2022-07-29T06:23:06;100752.13;;;25.42;44.25
69221;BME280;56331;51.992;20.910;2022-07-29T06:25:33;100758.50;;;25.43;44.30
69221;BME280;56331;51.992;20.910;2022-07-29T06:28:02;100747.10;;;25.42;44.36
69221;BME280;56331;51.992;20.910;2022-07-29T06:30:30;100750.72;;;25.42;44.36
69221;BME280;56331;51.992;20.910;2022-07-29T06:32:57;100744.90;;;25.41;44.35
69221;BME280;56331;51.992;20.910;2022-07-29T06:35:24;100745.95;;;25.43;44.40
69221;BME280;56331;51.992;20.910;2022-07-29T06:37:51;100746.88;;;25.41;44.49
69221;BME280;56331;51.992;20.910;2022-07-29T06:40:18;100743.29;;;25.40;44.54
69221;BME280;56331;51.992;20.910;2022-07-29T06:43:04;100745.48;;;25.41;44.62
69221;BME280;56331;51.992;20.910;2022-07-29T06:45:35;100749.89;;;25.42;44.79
69221;BME280;56331;51.992;20.910;2022-07-29T06:48:03;100752.13;;;25.42;45.33
69221;BME280;56331;51.992;20.910;2022-07-29T06:50:31;100756.65;;;25.41;45.70
69221;BME280;56331;51.992;20.910;2022-07-29T06:52:59;100752.25;;;25.40;45.78
69221;BME280;56331;51.992;20.910;2022-07-29T06:55:26;100756.98;;;25.39;45.75
69221;BME280;56331;51.992;20.910;2022-07-29T06:57:54;100760.28;;;25.35;46.02
69221;BME280;56331;51.992;20.910;2022-07-29T07:00:20;100758.80;;;25.31;46.20
69221;BME280;56331;51.992;20.910;2022-07-29T07:02:47;100749.59;;;25.31;46.28
69221;BME280;56331;51.992;20.910;2022-07-29T07:05:14;100751.11;;;25.28;46.30
69221;BME280;56331;51.992;20.910;2022-07-29T07:07:40;100757.19;;;25.24;46.44
69221;BME280;56331;51.992;20.910;2022-07-29T07:10:07;100754.73;;;25.23;46.59
69221;BME280;56331;51.992;20.910;2022-07-29T07:12:34;100755.67;;;25.21;46.56
69221;BME280;56331;51.992;20.910;2022-07-29T07:15:02;100759.05;;;25.20;46.46
69221;BME280;56331;51.992;20.910;2022-07-29T07:17:29;100756.59;;;25.25;46.30
69221;BME280;56331;51.992;20.910;2022-07-29T07:19:55;100755.33;;;25.22;46.34
69221;BME280;56331;51.992;20.910;2022-07-29T07:22:21;100750.69;;;25.20;46.42
69221;BME280;56331;51.992;20.910;2022-07-29T07:24:48;100753.01;;;25.18;46.43
69221;BME280;56331;51.992;20.910;2022-07-29T07:27:15;100758.70;;;25.16;46.56
69221;BME280;56331;51.992;20.910;2022-07-29T07:29:41;100744.86;;;25.13;46.93
69221;BME280;56331;51.992;20.910;2022-07-29T07:32:08;100751.83;;;25.13;46.85
69221;BME280;56331;51.992;20.910;2022-07-29T07:34:35;100759.27;;;25.15;46.82
69221;BME280;56331;51.992;20.910;2022-07-29T07:37:03;100756.50;;;25.21;46.54
69221;BME280;56331;51.992;20.910;2022-07-29T07:39:30;100747.42;;;25.24;46.59
69221;BME280;56331;51.992;20.910;2022-07-29T07:41:56;100755.08;;;25.27;46.51
69221;BME280;56331;51.992;20.910;2022-07-29T07:44:23;100751.11;;;25.28;46.62
69221;BME280;56331;51.992;20.910;2022-07-29T07:46:50;100746.50;;;25.26;46.78
69221;BME280;56331;51.992;20.910;2022-07-29T07:49:16;100744.73;;;25.28;46.72
69221;BME280;56331;51.992;20.910;2022-07-29T07:51:43;100749.04;;;25.25;46.86
69221;BME280;56331;51.992;20.910;2022-07-29T07:54:09;100747.42;;;25.24;46.93
69221;BME280;56331;51.992;20.910;2022-07-29T07:56:36;100753.81;;;25.25;47.03
69221;BME280;56331;51.992;20.910;2022-07-29T07:59:03;100750.09;;;25.27;46.92
69221;BME280;56331;51.992;20.910;2022-07-29T08:01:29;100756.00;;;25.31;46.73
69221;BME280;56331;51.992;20.910;2022-07-29T08:03:56;100754.91;;;25.36;46.56
69221;BME280;56331;51.992;20.910;2022-07-29T08:06:23;100759.22;;;25.40;46.43
69221;BME280;56331;51.992;20.910;2022-07-29T08:08:51;100756.86;;;25.42;46.31
69221;BME280;56331;51.992;20.910;2022-07-29T08:11:17;100756.73;;;25.44;46.19
69221;BME280;56331;51.992;20.910;2022-07-29T08:13:44;100760.11;;;25.44;46.13
69221;BME280;56331;51.992;20.910;2022-07-29T08:16:11;100755.93;;;25.44;46.10
69221;BME280;56331;51.992;20.910;2022-07-29T08:18:39;100760.11;;;25.44;46.09
69221;BME280;56331;51.992;20.910;2022-07-29T08:21:07;100754.53;;;25.44;46.04
69221;BME280;56331;51.992;20.910;2022-07-29T08:23:33;100750.94;;;25.43;46.02
69221;BME280;56331;51.992;20.910;2022-07-29T08:26:12;100745.95;;;25.43;46.03
69221;BME280;56331;51.992;20.910;2022-07-29T08:28:40;100744.77;;;25.44;45.97
69221;BME280;56331;51.992;20.910;2022-07-29T08:31:07;100745.36;;;25.43;45.92
69221;BME280;56331;51.992;20.910;2022-07-29T08:33:33;100745.36;;;25.43;45.89
69221;BME280;56331;51.992;20.910;2022-07-29T08:36:00;100746.16;;;25.44;45.83
69221;BME280;56331;51.992;20.910;2022-07-29T08:38:27;100740.38;;;25.43;45.81
69221;BME280;56331;51.992;20.910;2022-07-29T08:40:53;100747.81;;;25.45;45.77
69221;BME280;56331;51.992;20.910;2022-07-29T08:43:20;100746.97;;;25.44;45.72
69221;BME280;56331;51.992;20.910;2022-07-29T08:45:49;100746.41;;;25.45;45.69
69221;BME280;56331;51.992;20.910;2022-07-29T08:48:18;100737.21;;;25.44;45.63
69221;BME280;56331;51.992;20.910;2022-07-29T08:50:45;100746.16;;;25.44;45.59
69221;BME280;56331;51.992;20.910;2022-07-29T08:53:15;100753.73;;;25.43;45.52
69221;BME280;56331;51.992;20.910;2022-07-29T08:55:44;100745.58;;;25.44;45.46
69221;BME280;56331;51.992;20.910;2022-07-29T08:58:13;100745.36;;;25.43;45.45
69221;BME280;56331;51.992;20.910;2022-07-29T09:00:45;100736.41;;;25.44;45.42
69221;BME280;56331;51.992;20.910;2022-07-29T09:03:15;100745.58;;;25.44;45.37
69221;BME280;56331;51.992;20.910;2022-07-29T09:05:42;100747.68;;;25.47;44.99
69221;BME280;56331;51.992;20.910;2022-07-29T09:08:09;100743.13;;;25.49;44.72
69221;BME280;56331;51.992;20.910;2022-07-29T09:10:37;100733.82;;;25.51;44.55
69221;BME280;56331;51.992;20.910;2022-07-29T09:13:04;100738.00;;;25.51;44.46
69221;BME280;56331;51.992;20.910;2022-07-29T09:15:31;100735.80;;;25.50;44.34
69221;BME280;56331;51.992;20.910;2022-07-29T09:17:58;100733.60;;;25.50;44.27
69221;BME280;56331;51.992;20.910;2022-07-29T09:20:26;100736.15;;;25.49;44.07
69221;BME280;56331;51.992;20.910;2022-07-29T09:22:54;100733.14;;;25.48;43.94
69221;BME280;56331;51.992;20.910;2022-07-29T09:25:38;100737.67;;;25.46;43.90
69221;BME280;56331;51.992;20.910;2022-07-29T09:28:10;100723.64;;;25.43;44.63
69221;BME280;56331;51.992;20.910;2022-07-29T09:33:21;100732.17;;;25.34;47.06
69221;BME280;56331;51.992;20.910;2022-07-29T09:38:27;100731.34;;;25.33;47.68
69221;BME280;56331;51.992;20.910;2022-07-29T09:41:02;100711.14;;;25.30;47.88
69221;BME280;56331;51.992;20.910;2022-07-29T09:43:28;100722.54;;;25.31;47.73
69221;BME280;56331;51.992;20.910;2022-07-29T09:45:56;100721.48;;;25.30;47.63
69221;BME280;56331;51.992;20.910;2022-07-29T10:00:38;100719.23;;;25.80;46.17
69221;BME280;56331;51.992;20.910;2022-07-29T10:03:06;100713.31;;;25.59;46.46
69221;BME280;56331;51.992;20.910;2022-07-29T10:05:32;100708.93;;;25.52;46.66
69221;BME280;56331;51.992;20.910;2022-07-29T10:07:59;100710.11;;;25.51;46.88
69221;BME280;56331;51.992;20.910;2022-07-29T10:10:30;100704.53;;;25.51;46.97
69221;BME280;56331;51.992;20.910;2022-07-29T10:13:00;100705.47;;;25.49;47.13
69221;BME280;56331;51.992;20.910;2022-07-29T10:15:29;100700.27;;;25.47;47.21
69221;BME280;56331;51.992;20.910;2022-07-29T10:17:56;100690.84;;;25.46;47.37
69221;BME280;56331;51.992;20.910;2022-07-29T10:20:24;100692.23;;;25.46;47.44
69221;BME280;56331;51.992;20.910;2022-07-29T10:22:52;100685.27;;;25.46;47.52
69221;BME280;56331;51.992;20.910;2022-07-29T10:25:19;100684.09;;;25.47;47.56
69221;BME280;56331;51.992;20.910;2022-07-29T10:27:47;100689.32;;;25.48;47.52
69221;BME280;56331;51.992;20.910;2022-07-29T10:30:15;100681.76;;;25.49;47.35
69221;BME280;56331;51.992;20.910;2022-07-29T10:35:48;100688.39;;;25.50;47.09
69221;BME280;56331;51.992;20.910;2022-07-29T10:44:06;100682.22;;;25.51;46.96
69221;BME280;56331;51.992;20.910;2022-07-29T10:46:38;100678.84;;;25.51;46.90
69221;BME280;56331;51.992;20.910;2022-07-29T10:59:45;100674.30;;;25.53;46.56
69221;BME280;56331;51.992;20.910;2022-07-29T11:05:07;100667.33;;;25.53;46.38
69221;BME280;56331;51.992;20.910;2022-07-29T11:07:36;100667.33;;;25.53;46.30
69221;BME280;56331;51.992;20.910;2022-07-29T11:15:22;100663.28;;;25.50;46.16
69221;BME280;56331;51.992;20.910;2022-07-29T11:20:40;100665.48;;;25.51;46.01
69221;BME280;56331;51.992;20.910;2022-07-29T11:26:17;100660.70;;;25.51;45.58
69221;BME280;56331;51.992;20.910;2022-07-29T11:31:45;100660.70;;;25.51;45.50
69221;BME280;56331;51.992;20.910;2022-07-29T11:34:25;100658.29;;;25.50;45.39
69221;BME280;56331;51.992;20.910;2022-07-29T11:39:36;100649.80;;;25.52;44.80
69221;BME280;56331;51.992;20.910;2022-07-29T11:47:26;100641.64;;;25.53;44.57
69221;BME280;56331;51.992;20.910;2022-07-29T11:49:54;100649.66;;;25.55;44.50
69221;BME280;56331;51.992;20.910;2022-07-29T11:52:23;100648.83;;;25.54;44.35
69221;BME280;56331;51.992;20.910;2022-07-29T11:54:51;100649.66;;;25.55;44.27
69221;BME280;56331;51.992;20.910;2022-07-29T11:57:19;100647.08;;;25.56;44.08
69221;BME280;56331;51.992;20.910;2022-07-29T11:59:47;100651.48;;;25.57;43.88
69221;BME280;56331;51.992;20.910;2022-07-29T12:02:15;100646.48;;;25.57;43.76
69221;BME280;56331;51.992;20.910;2022-07-29T12:09:57;100641.83;;;25.61;43.63
69221;BME280;56331;51.992;20.910;2022-07-29T12:12:25;100641.58;;;25.60;43.46
69221;BME280;56331;51.992;20.910;2022-07-29T12:14:53;100641.23;;;25.61;43.36
69221;BME280;56331;51.992;20.910;2022-07-29T12:19:53;100637.86;;;25.62;43.25
69221;BME280;56331;51.992;20.910;2022-07-29T12:22:35;100634.27;;;25.61;43.18
69221;BME280;56331;51.992;20.910;2022-07-29T12:25:19;100637.72;;;25.64;43.18
69221;BME280;56331;51.992;20.910;2022-07-29T12:27:46;100635.44;;;25.60;43.21
69221;BME280;56331;51.992;20.910;2022-07-29T12:30:15;100631.26;;;25.60;43.12
69221;BME280;56331;51.992;20.910;2022-07-29T12:32:46;100632.06;;;25.61;43.16
69221;BME280;56331;51.992;20.910;2022-07-29T12:35:20;100625.09;;;25.61;43.15
69221;BME280;56331;51.992;20.910;2022-07-29T12:37:48;100625.44;;;25.59;43.32
69221;BME280;56331;51.992;20.910;2022-07-29T12:40:17;100622.64;;;25.59;43.42
69221;BME280;56331;51.992;20.910;2022-07-29T12:43:13;100620.45;;;25.59;43.46
69221;BME280;56331;51.992;20.910;2022-07-29T12:45:43;100622.64;;;25.59;43.50
69221;BME280;56331;51.992;20.910;2022-07-29T12:48:10;100615.67;;;25.59;43.51
69221;BME280;56331;51.992;20.910;2022-07-29T12:50:55;100621.49;;;25.60;43.50
69221;BME280;56331;51.992;20.910;2022-07-29T12:53:20;100614.14;;;25.62;43.53
69221;BME280;56331;51.992;20.910;2022-07-29T12:55:51;100619.72;;;25.62;43.57
69221;BME280;56331;51.992;20.910;2022-07-29T12:58:39;100607.41;;;25.63;43.60
69221;BME280;56331;51.992;20.910;2022-07-29T13:01:14;100609.02;;;25.64;43.58
69221;BME280;56331;51.992;20.910;2022-07-29T13:09:19;100605.63;;;25.64;43.63
69221;BME280;56331;51.992;20.910;2022-07-29T13:11:48;100604.45;;;25.65;43.59
69221;BME280;56331;51.992;20.910;2022-07-29T13:14:31;100605.05;;;25.65;43.52
69221;BME280;56331;51.992;20.910;2022-07-29T13:17:18;100607.63;;;25.64;43.53
69221;BME280;56331;51.992;20.910;2022-07-29T13:19:48;100600.65;;;25.64;43.56
69221;BME280;56331;51.992;20.910;2022-07-29T13:22:17;100605.42;;;25.63;43.54
69221;BME280;56331;51.992;20.910;2022-07-29T13:27:18;100594.69;;;25.65;43.50
69221;BME280;56331;51.992;20.910;2022-07-29T13:29:45;100598.66;;;25.64;43.53
69221;BME280;56331;51.992;20.910;2022-07-29T13:32:12;100595.73;;;25.67;43.53
69221;BME280;56331;51.992;20.910;2022-07-29T13:34:39;100594.93;;;25.66;43.52
69221;BME280;56331;51.992;20.910;2022-07-29T13:37:06;100596.92;;;25.66;43.49
69221;BME280;56331;51.992;20.910;2022-07-29T13:39:33;100595.14;;;25.67;43.52
69221;BME280;56331;51.992;20.910;2022-07-29T13:42:00;100591.55;;;25.67;43.51
69221;BME280;56331;51.992;20.910;2022-07-29T13:44:27;100591.55;;;25.67;43.44
69221;BME280;56331;51.992;20.910;2022-07-29T13:46:54;100578.41;;;25.67;43.41
69221;BME280;56331;51.992;20.910;2022-07-29T13:49:20;100585.03;;;25.69;43.40
69221;BME280;56331;51.992;20.910;2022-07-29T13:51:48;100582.45;;;25.70;43.38
69221;BME280;56331;51.992;20.910;2022-07-29T13:54:15;100584.44;;;25.69;43.34
69221;BME280;56331;51.992;20.910;2022-07-29T13:56:42;100578.86;;;25.69;43.34
69221;BME280;56331;51.992;20.910;2022-07-29T13:59:08;100569.30;;;25.70;43.33
69221;BME280;56331;51.992;20.910;2022-07-29T14:01:35;100573.88;;;25.69;43.27
69221;BME280;56331;51.992;20.910;2022-07-29T14:04:03;100575.85;;;25.68;43.25
69221;BME280;56331;51.992;20.910;2022-07-29T14:06:30;100576.06;;;25.69;43.01
69221;BME280;56331;51.992;20.910;2022-07-29T14:08:57;100567.70;;;25.69;42.66
69221;BME280;56331;51.992;20.910;2022-07-29T14:11:24;100562.47;;;25.68;42.69
69221;BME280;56331;51.992;20.910;2022-07-29T14:13:50;100565.25;;;25.68;42.70
69221;BME280;56331;51.992;20.910;2022-07-29T14:16:17;100570.62;;;25.67;42.88
69221;BME280;56331;51.992;20.910;2022-07-29T14:18:44;100567.84;;;25.67;43.02
69221;BME280;56331;51.992;20.910;2022-07-29T14:21:12;100569.02;;;25.66;43.02
69221;BME280;56331;51.992;20.910;2022-07-29T14:23:38;100566.78;;;25.65;42.94
69221;BME280;56331;51.992;20.910;2022-07-29T14:26:06;100560.27;;;25.67;42.89
69221;BME280;56331;51.992;20.910;2022-07-29T14:28:33;100563.06;;;25.67;42.81
69221;BME280;56331;51.992;20.910;2022-07-29T14:31:00;100557.72;;;25.68;43.01
69221;BME280;56331;51.992;20.910;2022-07-29T14:33:27;100554.34;;;25.69;43.47